Tiempo atmosférico en la estación meteorológica de Puebla De Obando, Badajoz (392 m.)



Fecha
DESCASC
Temp. máxima en grados centígrados (hora)
DESCASC
Temp. mínima en grados centígrados (hora)
DESCASC
Temp. media en grados centígrados
DESCASC
Racha de viento máxima en m/sg (hora)
DESCASC
Velocidad máxima media en intervalos de 10 minutos(hora)
DESCASC
Precipitaciones diarias en mm
DESCASC
Precipitaciones de 00:00 a 06:00 en mm
DESCASC
Precipitaciones de 06:00 a 12:00 en mm
DESCASC
Precipitaciones de 12:00 a 18:00 en mm
DESCASC
Precipitaciones de 18:00 a 24:00 en mm
DESCASC
22-11-2020 18.2 (14:40) 6.4 (07:30) 12.3 3.33 (15:20) 2.5 (22:30) 0 0 0 0 0
21-11-2020 18.7 (15:10) 5.6 (07:30) 12.2 5.83 (12:10) 3.89 (12:10) 0 0 0 0 0
20-11-2020 19 (15:30) 10.9 (06:50) 14.9 6.94 (10:40) 5 (10:40) 0 0 0 0 0
19-11-2020 21.4 (16:00) 9.5 (00:00) 15.4 9.72 (12:00) 6.39 (12:40) 0 0 0 0 0
18-11-2020 23.1 (16:10) 10.7 (00:00) 16.9 5.83 (11:10) 3.89 (10:50) 0.2 0.2 0 0 0
17-11-2020 18.7 (16:10) 8.8 (00:00) 13.8 5.28 (10:30) 3.61 (09:50) 0.2 0.2 0 0 0
16-11-2020 19.1 (13:20) 9.5 (00:00) 14.3 5.28 (15:00) 3.89 (15:00) 0 0 0 0 0
15-11-2020 21.3 (15:40) 13.4 (00:00) 17.3 7.78 (12:10) 5.28 (12:50) 0 0 0 0 0
14-11-2020 17.8 (17:20) 12.8 (00:00) 15.3 6.11 (14:30) 3.89 (14:30) 4.8 0.6 2.8 0.6 0.8
13-11-2020 17.6 (14:10) 8.8 (00:00) 13.2 5.28 (10:10) 3.89 (10:00) 0 0 0 0 0
12-11-2020 19.3 (15:30) 9.3 (00:00) 14.3 8.33 (14:50) 5.28 (14:50) 0 0 0 0 0
11-11-2020 19 (16:00) 8.6 (00:00) 13.8 6.11 (09:50) 4.17 (10:30) 0 0 0 0 0
10-11-2020 18.6 (13:40) 8.8 (00:00) 13.7 4.17 (13:30) 2.78 (22:50) 0.4 0.2 0.2 0 0
09-11-2020 16.7 (16:20) 8.4 (00:00) 12.6 3.89 (17:10) 2.78 (17:10) 0.2 0.2 0 0 0
08-11-2020 17.7 (14:00) 11.7 (00:00) 14.7 10.56 (11:20) 6.39 (10:10) 15.2 0 0 2 13.2
07-11-2020 17.5 (17:30) 11.8 (00:00) 14.7 8.89 (13:50) 5.83 (13:50) 2.8 2.4 0.4 0 0
06-11-2020 19.1 (13:50) 11.9 (00:00) 15.5 18.06 (17:00) 10.56 (17:10) 9.4 0.4 0 3.2 5.8
05-11-2020 15 (12:50) 11.8 (00:00) 13.4 13.89 (07:10) 9.44 (07:10) 8 4.2 3.8 0 0
04-11-2020 14.4 (00:00) 11.5 (00:00) 12.9 8.33 (23:59) 5.83 (11:10) 0.8 0 0 0.4 0.4
03-11-2020 19.2 (15:20) 13.7 (00:00) 16.5 8.33 (09:40) 6.11 (09:40) 0.4 0 0.4 0 0
02-11-2020 20 (14:30) 14.5 (00:00) 17.3 3.89 (16:20) 2.78 (16:10) 0 0 0 0 0
01-11-2020 22.1 (15:30) 10.2 (00:00) 16.2 4.44 (14:10) 3.06 (14:20) 0 0 0 0 0
31-10-2020 24.4 (15:00) 10.7 (00:00) 17.5 4.44 (02:40) 3.33 (02:40) 0 0 0 0 0
30-10-2020 24.6 (15:40) 10.7 (00:00) 17.7 5.56 (10:50) 3.89 (10:50) 0 0 0 0 0
29-10-2020 22.2 (16:00) 13 (00:00) 17.6 8.06 (13:20) 5.83 (12:10) 0 0 0 0 0
28-10-2020 17.3 (16:10) 11.6 (00:00) 14.4 4.17 (11:30) 2.5 (11:40) 0.2 0 0.2 0 0
27-10-2020 15.5 (16:10) 5.2 (00:00) 10.3 6.94 (13:10) 4.72 (13:10) 0 0 0 0 0
26-10-2020 15.8 (16:10) 6.9 (00:00) 11.4 8.61 (14:50) 6.39 (14:50) 0 0 0 0 0

Gráficas

Temp. máximas Temp. mínimas Temp. medias Precipitaciones Rachas de viento máximas Velocidades máximas media en intervalos de 10 minutos

Datos horarios

Fecha y hora oficial Temperatura (ºC) Velocidad del viento (km/h) Dirección del viento Racha (km/h) Dirección de racha Precipitación (mm) Presión (hPa) Tendencia (hPa) Humedad (%)
2020-11-24 23:00:00 7.6 2 Sudeste 6 Sur 0 -- -- 100
2020-11-24 22:00:00 7.2 2 Sur 7 Sur 0 -- -- 99
2020-11-24 21:00:00 8.5 5 Sudeste 7 Sur 0 -- -- 94
2020-11-24 20:00:00 9.3 5 Sudoeste 9 Sudoeste 0 -- -- 94
2020-11-24 19:00:00 9.7 3 Sur 5 Sur 0 -- -- 91
2020-11-24 18:00:00 12.9 3 Sur 9 Oeste 0 -- -- 79
2020-11-24 17:00:00 14.6 8 Oeste 20 Oeste 0 -- -- 71
2020-11-24 16:00:00 14.5 12 Oeste 19 Oeste 0 -- -- 71
2020-11-24 15:00:00 15.1 11 Sudoeste 22 Oeste 0 -- -- 71
2020-11-24 14:00:00 15.2 10 Sudoeste 18 Sudoeste 0 -- -- 75
2020-11-24 13:00:00 14.1 6 Sudoeste 14 Sudoeste 0 -- -- 75
2020-11-24 12:00:00 13.4 5 Sur 13 Sudeste 0 -- -- 75
2020-11-24 11:00:00 11 8 Sudeste 13 Sudeste 0 -- -- 84
2020-11-24 10:00:00 8.2 7 Sudeste 12 Sudeste 0 -- -- 94
2020-11-24 09:00:00 6.1 9 Sudeste 12 Sudeste 0 -- -- 95
2020-11-24 08:00:00 5.8 6 Sudeste 12 Sudeste 0 -- -- 94
2020-11-24 07:00:00 6 8 Sudeste 9 Sudeste 0 -- -- 93
2020-11-24 06:00:00 5.2 5 Sudeste 7 Sudeste 0 -- -- 97
2020-11-24 05:00:00 5.4 2 Sur 6 Sudeste 0 -- -- 94
2020-11-24 04:00:00 5.5 4 Sur 7 Sudeste 0 -- -- 95
2020-11-24 03:00:00 5.6 5 Sudeste 6 Sudeste 0 -- -- 96
2020-11-24 02:00:00 6.3 5 Sur 6 Sur 0 -- -- 93
2020-11-24 01:00:00 6.4 3 Sudeste 4 Sur 0 -- -- 95
2020-11-24 00:00:00 7 0 Calma 3 Sur 0 -- -- 94
2020-11-23 23:00:00 6.4 3 Sur 3 Sur 0 -- -- 95
2020-11-23 22:00:00 7 0 Calma 5 Sur 0 -- -- 92
2020-11-23 21:00:00 8.1 0 Calma 2 Norte 0 -- -- 87
2020-11-23 20:00:00 8.9 0 Calma 2 Sudoeste 0 -- -- 89
2020-11-23 19:00:00 10.9 0 Calma 3 Sur 0 -- -- 87
2020-11-23 18:00:00 15.4 0 Calma 10 Norte 0 -- -- 71
2020-11-23 17:00:00 16.8 6 Nordeste 11 Nordeste 0 -- -- 66
2020-11-23 16:00:00 17.6 6 Nordeste 15 Nordeste 0 -- -- 61
2020-11-23 15:00:00 17.7 7 Sudeste 12 Sur 0 -- -- 60
2020-11-23 14:00:00 17.5 5 Sudeste 13 Sur 0 -- -- 58
2020-11-23 13:00:00 16.3 9 Sur 17 Sur 0 -- -- 59
2020-11-23 12:00:00 15.7 6 Sudeste 15 Sudeste 0 -- -- 65
2020-11-23 11:00:00 13.8 9 Sudeste 13 Sudeste 0 -- -- 75
2020-11-23 10:00:00 10 0 Calma 7 Noroeste 0 -- -- 89
2020-11-23 09:00:00 6.3 5 Noroeste 10 Oeste 0 -- -- 100
2020-11-23 08:00:00 5.8 5 Noroeste 6 Oeste 0 -- -- 100
2020-11-23 07:00:00 5.9 2 Noroeste 5 Noroeste 0 -- -- 98
2020-11-23 06:00:00 5.5 0 Calma 6 Oeste 0 -- -- 99
2020-11-23 05:00:00 5.8 3 Oeste 4 Oeste 0 -- -- 98
2020-11-23 04:00:00 5.9 0 Calma 4 Norte 0 -- -- 96
2020-11-23 03:00:00 7.9 6 Norte 8 Norte 0 -- -- 90
2020-11-23 02:00:00 8.6 3 Norte 5 Noroeste 0 -- -- 87
2020-11-23 01:00:00 9.7 3 Noroeste 5 Noroeste 0 -- -- 82
2020-11-23 00:00:00 10 2 Noroeste 6 Norte 0 -- -- 82
2020-11-22 23:00:00 10.1 3 Noroeste 12 Norte 0 -- -- 82
2020-11-22 22:00:00 9.6 2 Noroeste 4 Noroeste 0 -- -- 85
2020-11-22 21:00:00 10.6 2 Oeste 5 Sur 0 -- -- 80
2020-11-22 20:00:00 11.3 3 Noroeste 8 Nordeste 0 -- -- 79
2020-11-22 19:00:00 12.6 0 Calma 12 Nordeste 0 -- -- 76
2020-11-22 18:00:00 14.8 8 Nordeste 10 Nordeste 0 -- -- 69
2020-11-22 17:00:00 17.4 6 Norte 8 Nordeste 0 -- -- 66
2020-11-22 16:00:00 18 0 Calma 12 Norte 0 -- -- 63
2020-11-22 15:00:00 18 5 Norte 9 Norte 0 -- -- 62
2020-11-22 14:00:00 17.5 4 Este 11 Nordeste 0 -- -- 64
2020-11-22 13:00:00 17.4 4 Sudeste 10 Nordeste 0 -- -- 61
2020-11-22 12:00:00 16.5 3 Sur 11 Sudeste 0 -- -- 65
2020-11-22 11:00:00 14.8 8 Sudeste 12 Sudeste 0 -- -- 71
2020-11-22 10:00:00 12.6 4 Sudeste 7 Sudeste 0 -- -- 75
2020-11-22 09:00:00 7.7 0 Calma 5 Norte 0 -- -- 91
2020-11-22 08:00:00 7 0 Calma 4 Sur 0 -- -- 89
2020-11-22 07:00:00 6.9 0 Calma 2 Sudoeste 0 -- -- 88
2020-11-22 06:00:00 7.4 0 Calma 2 Este 0 -- -- 86
2020-11-22 05:00:00 7.2 0 Calma 8 Sudeste 0 -- -- 86
2020-11-22 04:00:00 8.6 6 Sudeste 8 Sudeste 0 -- -- 80
2020-11-22 03:00:00 9.1 4 Sudeste 6 Sudeste 0 -- -- 75
2020-11-22 02:00:00 8.6 4 Sudeste 6 Sudeste 0 -- -- 77
2020-11-22 01:00:00 8.7 2 Sudeste 4 Sudeste 0 -- -- 81
2020-11-22 00:00:00 8.9 2 Sudeste 6 Sudeste 0 -- -- 80
2020-11-21 23:00:00 8.9 5 Sudeste 7 Sur 0 -- -- 82
2020-11-21 22:00:00 9.6 3 Sudeste 7 Sudeste 0 -- -- 81
2020-11-21 21:00:00 10.3 4 Sudeste 6 Sudeste 0 -- -- 80
2020-11-21 20:00:00 11 3 Sudeste 5 Sudeste 0 -- -- 80
2020-11-21 19:00:00 12 2 Sudeste 8 Sudeste 0 -- -- 77
2020-11-21 18:00:00 15.5 7 Sudeste 14 Este 0 -- -- 62
2020-11-21 17:00:00 18.1 10 Sudeste 17 Este 0 -- -- 51
2020-11-21 16:00:00 18.2 9 Nordeste 16 Norte 0 -- -- 51
2020-11-21 15:00:00 18.5 8 Nordeste 14 Norte 0 -- -- 38
2020-11-21 14:00:00 18.4 8 Sudeste 15 Sudeste 0 -- -- 42
2020-11-21 13:00:00 17.5 12 Este 21 Sudeste 0 -- -- 41
2020-11-21 12:00:00 16.1 12 Este 20 Sudeste 0 -- -- 46
2020-11-21 11:00:00 14.3 9 Sudeste 13 Sudeste 0 -- -- 58
2020-11-21 10:00:00 11.5 2 Noroeste 14 Norte 0 -- -- 64
2020-11-21 09:00:00 8.1 8 Norte 16 Norte 0 -- -- 80
2020-11-21 08:00:00 6.4 5 Noroeste 9 Noroeste 0 -- -- 88
2020-11-21 07:00:00 5.9 0 Calma 10 Nordeste 0 -- -- 90
2020-11-21 06:00:00 8.5 5 Nordeste 10 Nordeste 0 -- -- 80
2020-11-21 05:00:00 8.8 8 Norte 15 Nordeste 0 -- -- 80
2020-11-21 04:00:00 8.4 4 Noroeste 9 Norte 0 -- -- 81
2020-11-21 03:00:00 9.7 3 Noroeste 14 Nordeste 0 -- -- 75
2020-11-21 02:00:00 9.4 7 Norte 14 Norte 0 -- -- 83
2020-11-21 01:00:00 10.2 0 Calma 7 Norte 0 -- -- 82
2020-11-21 00:00:00 11.1 4 Oeste 11 Norte 0 -- -- 80
2020-11-20 23:00:00 11.5 4 Oeste 15 Norte 0 -- -- 81
2020-11-20 22:00:00 12.2 8 Norte 13 Norte 0 -- -- 80
2020-11-20 21:00:00 12.9 5 Norte 14 Nordeste 0 -- -- 80
2020-11-20 20:00:00 13.4 4 Noroeste 6 Oeste 0 -- -- 81
2020-11-20 19:00:00 14.2 3 Noroeste 12 Nordeste 0 -- -- 79
2020-11-20 18:00:00 16.2 6 Nordeste 15 Nordeste 0 -- -- 74
2020-11-20 17:00:00 18.3 11 Nordeste 20 Nordeste 0 -- -- 63
2020-11-20 16:00:00 18.9 10 Nordeste 16 Norte 0 -- -- 61
2020-11-20 15:00:00 18.7 10 Nordeste 15 Nordeste 0 -- -- 64
2020-11-20 14:00:00 18.3 9 Nordeste 16 Nordeste 0 -- -- 65
2020-11-20 13:00:00 17.7 9 Norte 15 Norte 0 -- -- 72
2020-11-20 12:00:00 16.5 12 Nordeste 18 Nordeste 0 -- -- 76
2020-11-20 11:00:00 14.5 10 Norte 25 Nordeste 0 -- -- 85
2020-11-20 10:00:00 13.1 10 Norte 17 Norte 0 -- -- 88
2020-11-20 09:00:00 11.6 13 Norte 20 Norte 0 -- -- 94
2020-11-20 08:00:00 11.1 9 Norte 15 Norte 0 -- -- 96
2020-11-20 07:00:00 11 4 Norte 15 Nordeste 0 -- -- 95
2020-11-20 06:00:00 11.4 10 Norte 16 Norte 0 -- -- 92
2020-11-20 05:00:00 12.1 5 Noroeste 17 Norte 0 -- -- 87
2020-11-20 04:00:00 11.9 6 Norte 15 Norte 0 -- -- 89
2020-11-20 03:00:00 11.2 6 Norte 10 Norte 0 -- -- 91
2020-11-20 02:00:00 13.7 6 Norte 11 Norte 0 -- -- 82
2020-11-20 01:00:00 14.4 5 Oeste 23 Norte 0 -- -- 81
2020-11-20 00:00:00 15.1 9 Nordeste 17 Nordeste 0 -- -- 77
2020-11-19 23:00:00 14.7 10 Norte 14 Norte 0 -- -- 75
2020-11-19 22:00:00 15.2 12 Norte 14 Norte 0 -- -- 74
2020-11-19 21:00:00 15.4 9 Norte 14 Norte 0 -- -- 75
2020-11-19 20:00:00 15.7 11 Norte 14 Norte 0 -- -- 74
2020-11-19 19:00:00 16.7 9 Norte 18 Nordeste 0 -- -- 73
2020-11-19 18:00:00 18.7 13 Norte 26 Nordeste 0 -- -- 66
2020-11-19 17:00:00 20.6 14 Nordeste 27 Nordeste 0 -- -- 64
2020-11-19 16:00:00 21.4 12 Nordeste 24 Norte 0 -- -- 62
2020-11-19 15:00:00 20.9 17 Norte 24 Norte 0 -- -- 69
2020-11-19 14:00:00 19 16 Nordeste 28 Norte 0 -- -- 74
2020-11-19 13:00:00 16.7 19 Norte 34 Nordeste 0 -- -- 83
2020-11-19 12:00:00 14.6 19 Norte 35 Nordeste 0 -- -- 88
2020-11-19 11:00:00 12.8 11 Norte 21 Norte 0 -- -- 100
2020-11-19 10:00:00 11 12 Norte 20 Norte 0 -- -- 100
2020-11-19 09:00:00 10.1 8 Noroeste 25 Norte 0 -- -- 100
2020-11-19 08:00:00 9.6 8 Norte 23 Norte 0 -- -- 100
2020-11-19 07:00:00 10 10 Norte 21 Norte 0 -- -- 100
2020-11-19 06:00:00 9.8 10 Norte 20 Norte 0 -- -- 100
2020-11-19 05:00:00 9.5 9 Norte 18 Norte 0 -- -- 100
2020-11-19 04:00:00 10.7 11 Noroeste 20 Norte 0 -- -- 100
2020-11-19 03:00:00 11.4 7 Norte 12 Norte 0 -- -- 99
2020-11-19 02:00:00 11.7 6 Noroeste 13 Norte 0 -- -- 97
2020-11-19 01:00:00 12.8 5 Norte 12 Oeste 0 -- -- 94
2020-11-19 00:00:00 13.2 6 Noroeste 13 Norte 0 -- -- 98
2020-11-18 23:00:00 13.7 3 Nordeste 12 Norte 0 -- -- 98
2020-11-18 22:00:00 14.1 7 Norte 13 Norte 0 -- -- 97
2020-11-18 21:00:00 14.8 5 Norte 15 Norte 0 -- -- 96
2020-11-18 20:00:00 15.5 8 Norte 14 Nordeste 0 -- -- 94
2020-11-18 19:00:00 16.5 10 Nordeste 15 Nordeste 0 -- -- 92
2020-11-18 18:00:00 18.1 12 Nordeste 17 Nordeste 0 -- -- 86
2020-11-18 17:00:00 20.8 11 Nordeste 15 Nordeste 0 -- -- 77
2020-11-18 16:00:00 23 2 Este 13 Sudeste 0 -- -- 55
2020-11-18 15:00:00 22.4 9 Este 17 Este 0 -- -- 61
2020-11-18 14:00:00 21.8 8 Sudeste 15 Sudeste 0 -- -- 63
2020-11-18 13:00:00 20.8 10 Sudeste 17 Sudeste 0 -- -- 70
2020-11-18 12:00:00 19.8 10 Sudeste 21 Sudeste 0 -- -- 78
2020-11-18 11:00:00 17.9 13 Sudeste 18 Sudeste 0 -- -- 85
2020-11-18 10:00:00 15.8 9 Sudeste 14 Sudeste 0 -- -- 93
2020-11-18 09:00:00 12.2 6 Sudeste 8 Sudeste 0 -- -- 100
2020-11-18 08:00:00 10.9 4 Sur 10 Sudeste 0 -- -- 100
2020-11-18 07:00:00 11.2 5 Sudeste 8 Sudeste 0 -- -- 100
2020-11-18 06:00:00 12.2 5 Sudeste 12 Sudeste 0.2 -- -- 100
2020-11-18 05:00:00 12.3 9 Sudeste 13 Sudeste 0 -- -- 100
2020-11-18 04:00:00 11.3 6 Sur 8 Sur 0 -- -- 99
2020-11-18 03:00:00 12.4 6 Sudeste 9 Sudeste 0 -- -- 97
2020-11-18 02:00:00 12.7 8 Sudeste 10 Sudeste 0 -- -- 97
2020-11-18 01:00:00 13.2 5 Sudeste 9 Sudeste 0 -- -- 95
2020-11-18 00:00:00 13.6 6 Sudeste 10 Sudeste 0 -- -- 93
2020-11-17 23:00:00 13.9 9 Sudeste 11 Sudeste 0 -- -- 97
2020-11-17 22:00:00 13.6 10 Sudeste 13 Sudeste 0 -- -- 100
2020-11-17 21:00:00 13 7 Sur 10 Sudeste 0 -- -- 100
2020-11-17 20:00:00 12.8 2 Sur 4 Sur 0 -- -- 100
2020-11-17 19:00:00 14.3 2 Sur 5 Sudeste 0 -- -- 96
2020-11-17 18:00:00 16.7 5 Sudeste 12 Sur 0 -- -- 92
2020-11-17 17:00:00 18.5 8 Sur 13 Sur 0 -- -- 85
2020-11-17 16:00:00 18.6 9 Sur 14 Sur 0 -- -- 84
2020-11-17 15:00:00 17.6 7 Sudeste 13 Sur 0 -- -- 92
2020-11-17 14:00:00 15.3 9 Sudeste 15 Sudeste 0 -- -- 100
2020-11-17 13:00:00 14.3 9 Sudeste 16 Sudeste 0 -- -- 100
2020-11-17 12:00:00 13.7 12 Sudeste 18 Sudeste 0 -- -- 100
2020-11-17 11:00:00 12.8 12 Sudeste 19 Sudeste 0 -- -- 100
2020-11-17 10:00:00 11.4 13 Sudeste 18 Sudeste 0 -- -- 100
2020-11-17 09:00:00 10.2 8 Sudeste 13 Sudeste 0 -- -- 100
2020-11-17 08:00:00 10.6 8 Sudeste 12 Sur 0 -- -- 100
2020-11-17 07:00:00 10.2 3 Sudeste 11 Sudeste 0 -- -- 100
2020-11-17 06:00:00 11.5 8 Sur 11 Sudeste 0 -- -- 100
2020-11-17 05:00:00 10.5 3 Sudeste 8 Sur 0 -- -- 100
2020-11-17 04:00:00 10 0 Calma 0 Calma 0.2 -- -- 100
2020-11-17 03:00:00 9.3 0 Calma -- -- 0 -- -- 100
2020-11-17 02:00:00 9.9 0 Calma 0 Calma 0 -- -- 100
2020-11-17 01:00:00 10.4 0 Calma -- -- 0 -- -- 100
2020-11-17 00:00:00 9.5 0 Calma -- -- 0 -- -- 100
2020-11-16 23:00:00 10.2 0 Calma -- -- 0 -- -- 100
2020-11-16 22:00:00 10.4 0 Calma -- -- 0 -- -- 100
2020-11-16 21:00:00 11.3 0 Calma 5 Sudoeste 0 -- -- 100
2020-11-16 20:00:00 12.1 0 Calma 3 Sudoeste 0 -- -- 100
2020-11-16 19:00:00 13.7 2 Oeste 4 Noroeste 0 -- -- 98
2020-11-16 18:00:00 16.2 4 Oeste 11 Oeste 0 -- -- 92
2020-11-16 17:00:00 17.7 6 Sudoeste 11 Sudoeste 0 -- -- 86
2020-11-16 16:00:00 17.2 4 Sudoeste 18 Sudoeste 0 -- -- 89
2020-11-16 15:00:00 17.4 14 Sudoeste 19 Sudoeste 0 -- -- 90
2020-11-16 14:00:00 18.7 10 Sudoeste 15 Oeste 0 -- -- 84
2020-11-16 13:00:00 18.9 9 Sudoeste 13 Sudoeste 0 -- -- 84
2020-11-16 12:00:00 18.3 5 Oeste 10 Nordeste 0 -- -- 84
2020-11-16 11:00:00 16.7 5 Nordeste 10 Norte 0 -- -- 91
2020-11-16 10:00:00 14.7 3 Nordeste 6 Nordeste 0 -- -- 100
2020-11-16 09:00:00 12.8 0 Calma 9 Noroeste 0 -- -- 100
2020-11-16 08:00:00 12.8 7 Oeste 8 Oeste 0 -- -- 100
2020-11-16 07:00:00 13.7 3 Noroeste 10 Oeste 0 -- -- 100
2020-11-16 06:00:00 14.9 9 Oeste 13 Oeste 0 -- -- 100
2020-11-16 05:00:00 13.7 0 Calma 3 Sur 0 -- -- 100
2020-11-16 04:00:00 13.7 0 Calma 3 Sur 0 -- -- 100
2020-11-16 03:00:00 13.6 0 Calma 4 Sudeste 0 -- -- 100
2020-11-16 02:00:00 14 3 Este 4 Este 0 -- -- 100
2020-11-16 01:00:00 16 4 Norte 13 Noroeste 0 -- -- 96
2020-11-16 00:00:00 16.7 8 Oeste 19 Sudoeste 0 -- -- 93
2020-11-15 23:00:00 17.6 12 Sudoeste 17 Sudoeste 0 -- -- 91
2020-11-15 22:00:00 15.1 6 Sur 8 Sudoeste 0 -- -- 99
2020-11-15 21:00:00 16.2 0 Calma 5 Norte 0 -- -- 96
2020-11-15 20:00:00 16.9 3 Nordeste 10 Sudoeste 0 -- -- 93
2020-11-15 19:00:00 18.7 8 Sudoeste 14 Sudoeste 0 -- -- 83
2020-11-15 18:00:00 19.2 5 Sudoeste 19 Oeste 0 -- -- 84
2020-11-15 17:00:00 21.1 14 Oeste 19 Norte 0 -- -- 76
2020-11-15 16:00:00 21.1 9 Sudoeste 21 Oeste 0 -- -- 77
2020-11-15 15:00:00 20.9 10 Oeste 26 Sudoeste 0 -- -- 80
2020-11-15 14:00:00 20.4 12 Sudoeste 24 Sudoeste 0 -- -- 79
2020-11-15 13:00:00 19.2 15 Sudoeste 28 Sur 0 -- -- 83
2020-11-15 12:00:00 19 15 Sur 24 Sur 0 -- -- 84
2020-11-15 11:00:00 17.3 13 Sur 18 Sur 0 -- -- 93
2020-11-15 10:00:00 16.5 11 Sur 16 Sur 0 -- -- 97
2020-11-15 09:00:00 13.9 7 Sudeste 9 Sudeste 0 -- -- 100
2020-11-15 08:00:00 13.8 7 Sur 19 Sur 0 -- -- 100
2020-11-15 07:00:00 14.3 10 Sur 16 Sur 0 -- -- 100
2020-11-15 06:00:00 14.7 12 Sur 20 Sur 0 -- -- 100
2020-11-15 05:00:00 15 13 Sur 18 Sur 0 -- -- 100
2020-11-15 04:00:00 14.9 12 Sur 18 Sur 0 -- -- 100
2020-11-15 03:00:00 14.9 12 Sur 17 Sur 0 -- -- 100
2020-11-15 02:00:00 14.8 9 Sudeste 14 Sudeste 0 -- -- 100
2020-11-15 01:00:00 15 8 Sudeste 14 Sur 0 -- -- 100
2020-11-15 00:00:00 15.1 11 Sur 19 Sur 0.4 -- -- 100
2020-11-14 23:00:00 15.2 7 Sur 13 Sur 0.4 -- -- 100
2020-11-14 22:00:00 14.8 8 Sur 12 Sur 0 -- -- 100
2020-11-14 21:00:00 15.1 2 Sudeste 22 Sudoeste 0 -- -- 97
2020-11-14 20:00:00 15.7 7 Sudoeste 11 Sudoeste 0 -- -- 91
2020-11-14 19:00:00 15.5 5 Sudoeste 8 Sudoeste 0 -- -- 95
2020-11-14 18:00:00 16.2 3 Noroeste 10 Noroeste 0 -- -- 93
2020-11-14 17:00:00 17.5 7 Oeste 14 Oeste 0 -- -- 86
2020-11-14 16:00:00 16.7 7 Oeste 19 Sudoeste 0 -- -- 94
2020-11-14 15:00:00 16.5 12 Sudoeste 22 Sudoeste 0.2 -- -- 93
2020-11-14 14:00:00 15.1 11 Sudoeste 17 Sudoeste 0.2 -- -- 100
2020-11-14 13:00:00 14.9 9 Sur 13 Sur 0.2 -- -- 100
2020-11-14 12:00:00 14.5 9 Sur 15 Sudeste 1.4 -- -- 100
2020-11-14 11:00:00 14.1 8 Sur 15 Sudeste 0.8 -- -- 100
2020-11-14 10:00:00 13.6 10 Sudeste 18 Sudeste 0.6 -- -- 100
2020-11-14 09:00:00 13.4 10 Sudeste 15 Sudeste 0 -- -- 100
2020-11-14 08:00:00 13.2 8 Sudeste 18 Sudeste 0 -- -- 100
2020-11-14 07:00:00 13.2 10 Sur 18 Sur 0 -- -- 99
2020-11-14 06:00:00 13.2 13 Sur 19 Sudeste 0 -- -- 99
2020-11-14 05:00:00 12.9 6 Sur 10 Sudeste 0 -- -- 99
2020-11-14 04:00:00 13 7 Sudeste 12 Sudeste 0.4 -- -- 98
2020-11-14 03:00:00 13.9 6 Sudeste 12 Sudeste 0.2 -- -- 94
2020-11-14 02:00:00 14.3 7 Sudeste 15 Sur 0 -- -- 90
2020-11-14 01:00:00 14.4 8 Sur 12 Sudeste 0 -- -- 89
2020-11-14 00:00:00 14.2 8 Sudeste 11 Sudeste 0 -- -- 88
2020-11-13 23:00:00 14 6 Sudeste 10 Sudeste 0 -- -- 88
2020-11-13 22:00:00 13.9 6 Sudeste 10 Sudeste 0 -- -- 88
2020-11-13 21:00:00 13.9 5 Sur 9 Sudeste 0 -- -- 88
2020-11-13 20:00:00 14.1 6 Sudeste 9 Sudeste 0 -- -- 88
2020-11-13 19:00:00 14.4 8 Sudeste 12 Sudeste 0 -- -- 88
2020-11-13 18:00:00 15.1 6 Sudeste 12 Sudeste 0 -- -- 86
2020-11-13 17:00:00 15.8 7 Sudeste 10 Sudeste 0 -- -- 83
2020-11-13 16:00:00 16.5 7 Sur 14 Sudeste 0 -- -- 76
2020-11-13 15:00:00 17.2 11 Sur 19 Sur 0 -- -- 71
2020-11-13 14:00:00 17.5 9 Sur 17 Sudeste 0 -- -- 69
2020-11-13 13:00:00 16.4 11 Sudeste 18 Sudeste 0 -- -- 73
2020-11-13 12:00:00 15.5 10 Sudeste 16 Sudeste 0 -- -- 76
2020-11-13 11:00:00 13.5 11 Sudeste 19 Sudeste 0 -- -- 85
2020-11-13 10:00:00 11.9 14 Sudeste 18 Sudeste 0 -- -- 85
2020-11-13 09:00:00 10.7 9 Sudeste 12 Sudeste 0 -- -- 88
2020-11-13 08:00:00 10 8 Sudeste 10 Sudeste 0 -- -- 89
2020-11-13 07:00:00 10.3 8 Sudeste 12 Sudeste 0 -- -- 86
2020-11-13 06:00:00 9.9 7 Sudeste 10 Sudeste 0 -- -- 87
2020-11-13 05:00:00 10.1 8 Sudeste 12 Sudeste 0 -- -- 86
2020-11-13 04:00:00 10.4 8 Sur 14 Sudeste 0 -- -- 85
2020-11-13 03:00:00 10.3 8 Sur 11 Sudeste 0 -- -- 82
2020-11-13 02:00:00 8.8 6 Sudeste 8 Sudeste 0 -- -- 92
2020-11-13 01:00:00 9.4 0 Calma 4 Sudeste 0 -- -- 93
2020-11-13 00:00:00 9.3 0 Calma 3 Sur 0 -- -- 96
2020-11-12 23:00:00 10.3 0 Calma 4 Noroeste 0 -- -- 93
2020-11-12 22:00:00 11 2 Noroeste 6 Noroeste 0 -- -- 89
2020-11-12 21:00:00 13 3 Sur 10 Sudeste 0 -- -- 79
2020-11-12 20:00:00 12.2 3 Este 7 Nordeste 0 -- -- 83
2020-11-12 19:00:00 13.5 0 Calma 5 Sudeste 0 -- -- 83
2020-11-12 18:00:00 16.7 5 Sudeste 20 Sudeste 0 -- -- 66
2020-11-12 17:00:00 18.4 14 Sudeste 25 Sudeste 0 -- -- 56
2020-11-12 16:00:00 18.9 13 Sudeste 26 Este 0 -- -- 56
2020-11-12 15:00:00 18.8 17 Sudeste 30 Este 0 -- -- 55
2020-11-12 14:00:00 18.6 9 Sudeste 21 Sudeste 0 -- -- 59
2020-11-12 13:00:00 18 11 Sudeste 20 Sudeste 0 -- -- 62
2020-11-12 12:00:00 16.5 13 Sudeste 19 Sudeste 0 -- -- 70
2020-11-12 11:00:00 14.3 10 Sudeste 15 Sudeste 0 -- -- 78
2020-11-12 10:00:00 12.5 6 Sudeste 9 Sudeste 0 -- -- 88
2020-11-12 09:00:00 10.3 0 Calma 4 Sudeste 0 -- -- 94
2020-11-12 08:00:00 10.4 0 Calma 9 Nordeste 0 -- -- 92
2020-11-12 07:00:00 11.2 4 Norte 9 Nordeste 0 -- -- 90
2020-11-12 06:00:00 10.6 4 Norte 7 Norte 0 -- -- 95
2020-11-12 05:00:00 10.9 0 Calma 3 Sudeste 0 -- -- 93
2020-11-12 04:00:00 10.4 3 Sur 4 Sur 0 -- -- 98
2020-11-12 03:00:00 10.9 0 Calma 4 Norte 0 -- -- 94
2020-11-12 02:00:00 11.4 2 Noroeste 6 Noroeste 0 -- -- 94
2020-11-12 01:00:00 10.8 0 Calma 6 Noroeste 0 -- -- 97
2020-11-12 00:00:00 11.1 0 Calma 3 Sudoeste 0 -- -- 97
2020-11-11 23:00:00 11.5 2 Oeste 9 Noroeste 0 -- -- 96
2020-11-11 22:00:00 11.6 0 Calma 3 Sudeste 0 -- -- 96
2020-11-11 21:00:00 10.7 0 Calma 3 Sur 0 -- -- 98
2020-11-11 20:00:00 11.1 0 Calma 5 Este 0 -- -- 96
2020-11-11 19:00:00 13.2 0 Calma 2 Este 0 -- -- 91
2020-11-11 18:00:00 16 0 Calma 7 Sudoeste 0 -- -- 82
2020-11-11 17:00:00 18.2 7 Sudoeste 14 Sur 0 -- -- 65
2020-11-11 16:00:00 19 10 Sur 15 Sur 0 -- -- 62
2020-11-11 15:00:00 18.3 13 Sur 22 Sur 0 -- -- 65
2020-11-11 14:00:00 18.6 8 Sur 20 Sudoeste 0 -- -- 64
2020-11-11 13:00:00 18.1 11 Sudeste 22 Sudeste 0 -- -- 65
2020-11-11 12:00:00 17.1 13 Sudeste 21 Sur 0 -- -- 68
2020-11-11 11:00:00 15.7 12 Sudeste 21 Sudeste 0 -- -- 76
2020-11-11 10:00:00 13.3 15 Sudeste 22 Sudeste 0 -- -- 82
2020-11-11 09:00:00 11.3 8 Sudeste 13 Sudeste 0 -- -- 89
2020-11-11 08:00:00 9.2 8 Sur 12 Sudeste 0 -- -- 95
2020-11-11 07:00:00 9.3 9 Sur 12 Sudeste 0 -- -- 95
2020-11-11 06:00:00 9.9 9 Sudeste 13 Sudeste 0 -- -- 93
2020-11-11 05:00:00 10.6 10 Sudeste 14 Sudeste 0 -- -- 92
2020-11-11 04:00:00 10.6 9 Sudeste 12 Sudeste 0 -- -- 92
2020-11-11 03:00:00 9.9 6 Sur 9 Sur 0 -- -- 97
2020-11-11 02:00:00 8.7 0 Calma -- -- 0 -- -- 100
2020-11-11 01:00:00 9.5 0 Calma 0 Calma 0 -- -- 100
2020-11-11 00:00:00 9.7 0 Calma 5 Oeste 0 -- -- 97
2020-11-10 23:00:00 10.8 5 Noroeste 12 Oeste 0 -- -- 97
2020-11-10 22:00:00 12.1 0 Calma 9 Nordeste 0 -- -- 92
2020-11-10 21:00:00 12.9 9 Nordeste 12 Nordeste 0 -- -- 94
2020-11-10 20:00:00 14 9 Nordeste 15 Nordeste 0 -- -- 88
2020-11-10 19:00:00 14.5 9 Nordeste 13 Nordeste 0 -- -- 88
2020-11-10 18:00:00 16.1 6 Nordeste 13 Norte 0 -- -- 82
2020-11-10 17:00:00 17.5 8 Nordeste 13 Nordeste 0 -- -- 76
2020-11-10 16:00:00 17.3 8 Nordeste 13 Nordeste 0 -- -- 76
2020-11-10 15:00:00 17.6 9 Nordeste 13 Norte 0 -- -- 73
2020-11-10 14:00:00 18.2 7 Sudeste 15 Sudeste 0 -- -- 69
2020-11-10 13:00:00 17.8 8 Sur 15 Sudeste 0 -- -- 73
2020-11-10 12:00:00 16.6 6 Sudeste 15 Sudeste 0 -- -- 76
2020-11-10 11:00:00 15.3 6 Sudeste 13 Este 0 -- -- 83
2020-11-10 10:00:00 12.6 0 Calma 5 Nordeste 0 -- -- 100
2020-11-10 09:00:00 9.5 4 Nordeste 9 Nordeste 0.2 -- -- 100
2020-11-10 08:00:00 8.8 0 Calma 8 Norte 0 -- -- 100
2020-11-10 07:00:00 9.7 6 Norte 9 Norte 0 -- -- 100
2020-11-10 06:00:00 9.6 3 Norte 9 Norte 0 -- -- 100
2020-11-10 05:00:00 9.6 6 Norte 7 Norte 0 -- -- 100
2020-11-10 04:00:00 9.1 0 Calma 4 Norte 0 -- -- 100
2020-11-10 03:00:00 9.7 3 Norte 6 Noroeste 0.2 -- -- 100
2020-11-10 02:00:00 10.4 3 Noroeste 6 Norte 0 -- -- 100
2020-11-10 01:00:00 10.2 4 Norte 6 Noroeste 0 -- -- 100
2020-11-10 00:00:00 10.9 4 Norte 6 Norte 0 -- -- 100
2020-11-09 23:00:00 10.9 3 Noroeste 4 Noroeste 0 -- -- 100
2020-11-09 22:00:00 10.3 0 Calma 8 Oeste 0 -- -- 100
2020-11-09 21:00:00 11.2 3 Noroeste 5 Oeste 0 -- -- 99
2020-11-09 20:00:00 11.5 4 Noroeste 5 Noroeste 0 -- -- 99
2020-11-09 19:00:00 12.8 4 Norte 5 Noroeste 0 -- -- 95
2020-11-09 18:00:00 14.8 5 Norte 14 Norte 0 -- -- 87
2020-11-09 17:00:00 16 8 Noroeste 13 Norte 0 -- -- 80
2020-11-09 16:00:00 16 2 Noroeste 6 Noroeste 0 -- -- 78
2020-11-09 15:00:00 16 0 Calma 8 Oeste 0 -- -- 72
2020-11-09 14:00:00 15.8 2 Sudoeste 6 Sur 0 -- -- 77
2020-11-09 13:00:00 14.2 0 Calma 8 Oeste 0 -- -- 92
2020-11-09 12:00:00 13.4 4 Noroeste 12 Oeste 0 -- -- 95
2020-11-09 11:00:00 13.2 3 Norte 9 Norte 0 -- -- 100
2020-11-09 10:00:00 12.1 0 Calma 7 Norte 0 -- -- 100
2020-11-09 09:00:00 10.4 4 Norte 8 Nordeste 0 -- -- 100
2020-11-09 08:00:00 8.8 4 Noroeste 6 Noroeste 0 -- -- 100
2020-11-09 07:00:00 8.6 0 Calma 3 Sur 0 -- -- 100
2020-11-09 06:00:00 9.9 0 Calma 6 Oeste 0 -- -- 100
2020-11-09 05:00:00 11.4 3 Noroeste 5 Oeste 0 -- -- 100
2020-11-09 04:00:00 12.1 5 Noroeste 8 Noroeste 0 -- -- 100
2020-11-09 03:00:00 12.3 5 Noroeste 12 Oeste 0.2 -- -- 100
2020-11-09 02:00:00 13.2 5 Oeste 10 Oeste 0 -- -- 100
2020-11-09 01:00:00 13.5 8 Oeste 10 Oeste 0 -- -- 100
2020-11-09 00:00:00 13.8 5 Oeste 28 Sudoeste 3 -- -- 100
2020-11-08 23:00:00 14.1 17 Sudoeste 30 Sudoeste 0.8 -- -- 100
2020-11-08 22:00:00 14 11 Sur 21 Sudoeste 1.4 -- -- 100
2020-11-08 21:00:00 -- -- -- -- -- -- -- -- --
2020-11-08 20:00:00 14.2 13 Sur 23 Sur 0.2 -- -- 99
2020-11-08 19:00:00 14.2 5 Oeste 19 Sudoeste 6.4 -- -- 98
2020-11-08 18:00:00 15 11 Oeste 18 Sudoeste 1.8 -- -- 93
2020-11-08 17:00:00 16.5 6 Sudoeste 31 Sur 0.2 -- -- 82
2020-11-08 16:00:00 16.9 12 Sur 28 Sur 0 -- -- 79
2020-11-08 15:00:00 17.3 17 Sur 30 Sudoeste 0 -- -- 75
2020-11-08 14:00:00 17.7 20 Sudoeste 33 Sudoeste 0 -- -- 76
2020-11-08 13:00:00 16.3 16 Sur 32 Sur 0 -- -- 84
2020-11-08 12:00:00 15.8 22 Sur 38 Sur 0 -- -- 83
2020-11-08 11:00:00 14.9 18 Sur 35 Sudeste 0 -- -- 86
2020-11-08 10:00:00 14.5 19 Sur 33 Sudeste 0 -- -- 86
2020-11-08 09:00:00 12.8 20 Sur 28 Sur 0 -- -- 93
2020-11-08 08:00:00 12.3 16 Sur 27 Sur 0 -- -- 94
2020-11-08 07:00:00 11.7 15 Sudeste 22 Sudeste 0 -- -- 97
2020-11-08 06:00:00 11.9 14 Sudeste 22 Sudeste 0 -- -- 96
2020-11-08 05:00:00 12 12 Sur 18 Sudeste 0 -- -- 96
2020-11-08 04:00:00 11.9 13 Sur 18 Sudeste 0 -- -- 96
2020-11-08 03:00:00 11.7 11 Sudeste 22 Sur 0 -- -- 95
2020-11-08 02:00:00 12.9 15 Sur 28 Sur 0 -- -- 90
2020-11-08 01:00:00 13.1 14 Sur 26 Sur 0 -- -- 89
2020-11-08 00:00:00 13.3 13 Sur 28 Sur 0 -- -- 87
2020-11-07 23:00:00 14.1 16 Sur 28 Sur 0 -- -- 84
2020-11-07 22:00:00 15 14 Sur 30 Sur 0 -- -- 78
2020-11-07 21:00:00 15.3 12 Sur 24 Sudoeste 0 -- -- 76
2020-11-07 20:00:00 14.9 11 Sur 19 Sur 0 -- -- 78
2020-11-07 19:00:00 15.3 13 Sur 22 Sudoeste 0 -- -- 76
2020-11-07 18:00:00 16.3 11 Sudoeste 28 Sudoeste 0 -- -- 70
2020-11-07 17:00:00 16.6 14 Sudoeste 29 Sudoeste 0 -- -- 72
2020-11-07 16:00:00 16.6 12 Sudoeste 28 Sudoeste 0 -- -- 74
2020-11-07 15:00:00 16.8 19 Sudoeste 29 Sudoeste 0 -- -- 70
2020-11-07 14:00:00 15.9 18 Sudoeste 32 Oeste 0 -- -- 78
2020-11-07 13:00:00 14.8 14 Oeste 25 Oeste 0 -- -- 87
2020-11-07 12:00:00 13.7 12 Sudoeste 27 Sudoeste 0 -- -- 93
2020-11-07 11:00:00 12.9 13 Sudoeste 28 Sudoeste 0 -- -- 95
2020-11-07 10:00:00 12 15 Oeste 30 Oeste 0 -- -- 99
2020-11-07 09:00:00 11.8 20 Sudoeste 29 Oeste 0 -- -- 100
2020-11-07 08:00:00 11.9 19 Sudoeste 31 Sudoeste 0.4 -- -- 100
2020-11-07 07:00:00 12.2 7 Sudoeste 20 Oeste 0 -- -- 98
2020-11-07 06:00:00 12.3 10 Sudoeste 16 Sudoeste 0.2 -- -- 97
2020-11-07 05:00:00 12.5 10 Sur 19 Sur 0 -- -- 96
2020-11-07 04:00:00 12 8 Sur 12 Este 0 -- -- 100
2020-11-07 03:00:00 12 9 Sudeste 15 Sudeste 0 -- -- 100
2020-11-07 02:00:00 12 9 Sudeste 14 Sudoeste 0 -- -- 99
2020-11-07 01:00:00 13 6 Sur 18 Sudoeste 2.2 -- -- 94
2020-11-07 00:00:00 13.3 9 Sur 19 Sudeste 2.2 -- -- 91
2020-11-06 23:00:00 14.3 12 Sur 32 Sur 0 -- -- 85
2020-11-06 22:00:00 13.8 19 Sur 38 Sudoeste 0 -- -- 83
2020-11-06 21:00:00 12.8 14 Sur 30 Sur 2.4 -- -- 91
2020-11-06 20:00:00 12.7 11 Sur 28 Sur 0.2 -- -- 91
2020-11-06 19:00:00 12.5 11 Sudoeste 35 Sudoeste 1 -- -- 93
2020-11-06 18:00:00 12.2 19 Oeste 62 Sudoeste 3 -- -- 94
2020-11-06 17:00:00 17.4 19 Sur 65 Oeste 0.2 -- -- 74
2020-11-06 16:00:00 18.5 3 Sudeste 8 Sudoeste 0 -- -- 73
2020-11-06 15:00:00 18.9 5 Sudoeste 14 Sudoeste 0 -- -- 68
2020-11-06 14:00:00 19 9 Sur 24 Sudeste 0 -- -- 68
2020-11-06 13:00:00 18.3 16 Sur 31 Sudeste 0 -- -- 66
2020-11-06 12:00:00 16.3 20 Sur 36 Sudeste 0 -- -- 71
2020-11-06 11:00:00 16.2 24 Sudeste 47 Sudeste 0 -- -- 70
2020-11-06 10:00:00 16.1 28 Sudeste 51 Sudeste 0 -- -- 69
2020-11-06 09:00:00 15.9 31 Este 44 Este 0 -- -- 69
2020-11-06 08:00:00 14.7 19 Sudeste 31 Sudeste 0 -- -- 78
2020-11-06 07:00:00 13.5 6 Sudeste 11 Sudeste 0 -- -- 90
2020-11-06 06:00:00 14.4 7 Sudoeste 18 Sudeste 0.2 -- -- 82
2020-11-06 05:00:00 14.5 10 Sudeste 23 Sudeste 0 -- -- 80
2020-11-06 04:00:00 13 12 Sudeste 18 Sudeste 0 -- -- 91
2020-11-06 03:00:00 12.7 6 Sudeste 14 Sudeste 0 -- -- 93
2020-11-06 02:00:00 12.7 8 Sudeste 13 Sudeste 0.2 -- -- 92
2020-11-06 01:00:00 13.9 7 Sudoeste 33 Sudeste 0 -- -- 87
2020-11-06 00:00:00 13.8 17 Sudeste 35 Sudeste 0 -- -- 86
2020-11-05 23:00:00 13.4 24 Sudeste 42 Sudeste 0 -- -- 86
2020-11-05 22:00:00 13.1 28 Sudeste 45 Sudeste 0 -- -- 86
2020-11-05 21:00:00 13.3 22 Sudeste 35 Sudeste 0 -- -- 86
2020-11-05 20:00:00 12.7 17 Sudeste 31 Sudeste 0 -- -- 90
2020-11-05 19:00:00 12.5 17 Sudeste 37 Sudeste 0 -- -- 92
2020-11-05 18:00:00 13.7 24 Sudeste 44 Sudeste 0 -- -- 86
2020-11-05 17:00:00 14.8 20 Sudeste 40 Sudeste 0 -- -- 83
2020-11-05 16:00:00 14.8 25 Sudeste 36 Sudeste 0 -- -- 87
2020-11-05 15:00:00 14.5 23 Sudeste 37 Sudeste 0 -- -- 91
2020-11-05 14:00:00 14.9 24 Sudeste 42 Sudeste 0 -- -- 91
2020-11-05 13:00:00 15 28 Sudeste 40 Sudeste 0 -- -- 88
2020-11-05 12:00:00 13.9 20 Sudeste 30 Sudeste 0 -- -- 93
2020-11-05 11:00:00 13.7 22 Sudeste 39 Sudeste 0 -- -- 96
2020-11-05 10:00:00 12.9 26 Sudeste 44 Sudeste 0 -- -- 98
2020-11-05 09:00:00 12.7 27 Sudeste 49 Sudeste 0.6 -- -- 97
2020-11-05 08:00:00 12.8 30 Sudeste 50 Sudeste 0 -- -- 95
2020-11-05 07:00:00 12.4 29 Este 45 Sudeste 3.2 -- -- 96
2020-11-05 06:00:00 12.1 22 Este 39 Sudeste 2 -- -- 97
2020-11-05 05:00:00 12.3 32 Sudeste 48 Este 1.2 -- -- 97
2020-11-05 04:00:00 12.5 27 Este 37 Este 0.8 -- -- 94
2020-11-05 03:00:00 12.6 22 Este 32 Este 0 -- -- 91
2020-11-05 02:00:00 12.1 15 Este 24 Este 0.2 -- -- 95
2020-11-05 01:00:00 11.9 13 Este 33 Nordeste 0 -- -- 94
2020-11-05 00:00:00 12.2 15 Este 30 Este 0 -- -- 93
2020-11-04 23:00:00 12.1 7 Sudeste 23 Sudeste 0.4 -- -- 95
2020-11-04 22:00:00 12.6 15 Sudeste 28 Este 0 -- -- 91
2020-11-04 21:00:00 12.2 15 Este 25 Este 0 -- -- 93
2020-11-04 20:00:00 11.5 4 Este 19 Sudeste 0 -- -- 94
2020-11-04 19:00:00 12.2 5 Este 19 Este 0 -- -- 93
2020-11-04 18:00:00 12 10 Nordeste 20 Nordeste 0 -- -- 92
2020-11-04 17:00:00 12.1 15 Nordeste 22 Nordeste 0 -- -- 90
2020-11-04 16:00:00 12.8 15 Nordeste 22 Norte 0 -- -- 89
2020-11-04 15:00:00 12.7 15 Nordeste 22 Nordeste 0 -- -- 90
2020-11-04 14:00:00 12.6 14 Nordeste 23 Norte 0.4 -- -- 90
2020-11-04 13:00:00 13.6 15 Nordeste 24 Nordeste 0 -- -- 78
2020-11-04 12:00:00 13.3 17 Nordeste 29 Nordeste 0 -- -- 77
2020-11-04 11:00:00 12.3 19 Nordeste 27 Norte 0 -- -- 79
2020-11-04 10:00:00 12 19 Nordeste 27 Nordeste 0 -- -- 79
2020-11-04 09:00:00 11.6 14 Norte 24 Norte 0 -- -- 84
2020-11-04 08:00:00 12.2 14 Nordeste 23 Norte 0 -- -- 84
2020-11-04 07:00:00 12.6 15 Norte 22 Norte 0 -- -- 86
2020-11-04 06:00:00 12.7 8 Norte 15 Norte 0 -- -- 88
2020-11-04 05:00:00 13.1 8 Norte 15 Norte 0 -- -- 88
2020-11-04 04:00:00 12.7 5 Noroeste 12 Noroeste 0 -- -- 88
2020-11-04 03:00:00 12.9 8 Oeste 11 Oeste 0 -- -- 87
2020-11-04 02:00:00 13.3 8 Noroeste 13 Noroeste 0 -- -- 87
2020-11-04 01:00:00 13.8 7 Norte 22 Norte 0 -- -- 81
2020-11-04 00:00:00 14.4 12 Norte 22 Norte 0 -- -- 77
2020-11-03 23:00:00 14.3 6 Norte 12 Norte 0 -- -- 80
2020-11-03 22:00:00 14 9 Nordeste 18 Norte 0 -- -- 82
2020-11-03 21:00:00 14.9 14 Norte 21 Norte 0 -- -- 79
2020-11-03 20:00:00 15.6 12 Norte 21 Norte 0 -- -- 77
2020-11-03 19:00:00 17 13 Norte 22 Norte 0 -- -- 71
2020-11-03 18:00:00 18.2 10 Noroeste 21 Norte 0 -- -- 66
2020-11-03 17:00:00 19.1 10 Norte 23 Noroeste 0 -- -- 65
2020-11-03 16:00:00 19 12 Norte 22 Norte 0 -- -- 64
2020-11-03 15:00:00 18.8 13 Norte 21 Norte 0 -- -- 65
2020-11-03 14:00:00 17.8 11 Norte 21 Norte 0 -- -- 64
2020-11-03 13:00:00 18 12 Nordeste 24 Nordeste 0 -- -- 63
2020-11-03 12:00:00 16.4 14 Norte 22 Norte 0 -- -- 64
2020-11-03 11:00:00 14.6 14 Nordeste 29 Norte 0 -- -- 71
2020-11-03 10:00:00 14 19 Norte 30 Nordeste 0 -- -- 77
2020-11-03 09:00:00 13.8 15 Norte 23 Norte 0 -- -- 95
2020-11-03 08:00:00 13.9 16 Norte 23 Norte 0 -- -- 93
2020-11-03 07:00:00 14.7 9 Norte 15 Oeste 0.4 -- -- 98
2020-11-03 06:00:00 14.8 9 Noroeste 20 Noroeste 0 -- -- 97
2020-11-03 05:00:00 15.1 10 Noroeste 16 Noroeste 0 -- -- 99
2020-11-03 04:00:00 15.4 6 Oeste 13 Norte 0 -- -- 99
2020-11-03 03:00:00 15.7 10 Norte 17 Norte 0 -- -- 97
2020-11-03 02:00:00 16.1 14 Norte 21 Norte 0 -- -- 97
2020-11-03 01:00:00 16.4 14 Norte 20 Norte 0 -- -- 95
2020-11-03 00:00:00 15.9 6 Norte 14 Norte 0 -- -- 96
2020-11-02 23:00:00 16 6 Norte 11 Norte 0 -- -- 95
2020-11-02 22:00:00 16.3 8 Norte 14 Norte 0 -- -- 93
2020-11-02 21:00:00 16.5 6 Norte 12 Norte 0 -- -- 93
2020-11-02 20:00:00 16.8 5 Norte 12 Noroeste 0 -- -- 93
2020-11-02 19:00:00 17.2 8 Norte 11 Norte 0 -- -- 91
2020-11-02 18:00:00 17.4 9 Noroeste 12 Noroeste 0 -- -- 90
2020-11-02 17:00:00 18.1 6 Noroeste 14 Noroeste 0 -- -- 88
2020-11-02 16:00:00 19.2 9 Noroeste 13 Noroeste 0 -- -- 83
2020-11-02 15:00:00 20 4 Noroeste 10 Oeste 0 -- -- 76
2020-11-02 14:00:00 19.7 0 Calma 7 Sudoeste 0 -- -- 77
2020-11-02 13:00:00 18.5 4 Este 12 Nordeste 0 -- -- 85
2020-11-02 12:00:00 17.6 4 Norte 8 Nordeste 0 -- -- 89
2020-11-02 11:00:00 16.9 3 Noroeste 5 Sudeste 0 -- -- 94
2020-11-02 10:00:00 15.7 2 Sudeste 6 Sudeste 0 -- -- 98
2020-11-02 09:00:00 15.2 0 Calma 4 Norte 0 -- -- 100
2020-11-02 08:00:00 14.6 0 Calma 5 Nordeste 0 -- -- 100
2020-11-02 07:00:00 14.8 0 Calma 6 Noroeste 0 -- -- 99
2020-11-02 06:00:00 14.7 2 Norte 3 Norte 0 -- -- 99
2020-11-02 05:00:00 14.9 0 Calma 3 Norte 0 -- -- 99
2020-11-02 04:00:00 15.1 0 Calma 5 Oeste 0 -- -- 97
2020-11-02 03:00:00 15.6 4 Noroeste 6 Noroeste 0 -- -- 95
2020-11-02 02:00:00 15.5 3 Noroeste 8 Norte 0 -- -- 96
2020-11-02 01:00:00 15.8 4 Noroeste 5 Noroeste 0 -- -- 94
2020-11-02 00:00:00 16.3 3 Norte 7 Norte 0 -- -- 91
2020-11-01 23:00:00 16.4 2 Noroeste 6 Noroeste 0 -- -- 90
2020-11-01 22:00:00 16.5 0 Calma 5 Noroeste 0 -- -- 89
2020-11-01 21:00:00 17.2 4 Noroeste 8 Noroeste 0 -- -- 86
2020-11-01 20:00:00 17.1 3 Noroeste 8 Noroeste 0 -- -- 85
2020-11-01 19:00:00 17.9 4 Oeste 7 Oeste 0 -- -- 84
2020-11-01 18:00:00 19.4 5 Noroeste 9 Noroeste 0 -- -- 77
2020-11-01 17:00:00 20.6 6 Noroeste 15 Noroeste 0 -- -- 71
2020-11-01 16:00:00 21.5 8 Oeste 11 Noroeste 0 -- -- 69
2020-11-01 15:00:00 21.8 4 Oeste 16 Sudoeste 0 -- -- 67
2020-11-01 14:00:00 21.3 6 Sudoeste 12 Sur 0 -- -- 67
2020-11-01 13:00:00 20.8 7 Sur 12 Sudeste 0 -- -- 72
2020-11-01 12:00:00 19.7 3 Sur 8 Sur 0 -- -- 73
2020-11-01 11:00:00 16.3 0 Calma 6 Sudeste 0 -- -- 92
2020-11-01 10:00:00 14.3 5 Sudeste 6 Sudeste 0 -- -- 99
2020-11-01 09:00:00 12.2 0 Calma 4 Noroeste 0 -- -- 100
2020-11-01 08:00:00 11.5 2 Noroeste 4 Noroeste 0 -- -- 100
2020-11-01 07:00:00 10.7 5 Sur 6 Sur 0 -- -- 99
2020-11-01 06:00:00 11.7 0 Calma 5 Oeste 0 -- -- 99
2020-11-01 05:00:00 12.9 4 Oeste 8 Noroeste 0 -- -- 99
2020-11-01 04:00:00 13.7 4 Oeste 5 Noroeste 0 -- -- 97
2020-11-01 03:00:00 14 2 Norte 6 Norte 0 -- -- 93
2020-11-01 02:00:00 14.5 5 Noroeste 10 Noroeste 0 -- -- 91
2020-11-01 01:00:00 14.7 4 Noroeste 7 Noroeste 0 -- -- 90
2020-11-01 00:00:00 14.2 3 Noroeste 9 Noroeste 0 -- -- 89
2020-10-31 23:00:00 14.5 6 Noroeste 9 Noroeste 0 -- -- 87
2020-10-31 22:00:00 15.8 0 Calma 7 Norte 0 -- -- 81
2020-10-31 21:00:00 16.3 5 Noroeste 8 Noroeste 0 -- -- 79
2020-10-31 20:00:00 16.7 0 Calma 5 Nordeste 0 -- -- 82
2020-10-31 19:00:00 18.9 4 Norte 10 Norte 0 -- -- 71
2020-10-31 18:00:00 22.3 5 Oeste 10 Oeste 0 -- -- 63
2020-10-31 17:00:00 23.6 8 Oeste 16 Noroeste 0 -- -- 51
2020-10-31 16:00:00 24.1 9 Noroeste 15 Noroeste 0 -- -- 47
2020-10-31 15:00:00 24.4 7 Sudoeste 15 Oeste 0 -- -- 54
2020-10-31 14:00:00 23.3 7 Noroeste 13 Noroeste 0 -- -- 54
2020-10-31 13:00:00 22.5 6 Norte 12 Noroeste 0 -- -- 61
2020-10-31 12:00:00 21.8 4 Sudoeste 14 Oeste 0 -- -- 63
2020-10-31 11:00:00 20.8 3 Sur 12 Sudeste 0 -- -- 63
2020-10-31 10:00:00 16.9 0 Calma 6 Oeste 0 -- -- 82
2020-10-31 09:00:00 13.3 5 Oeste 8 Oeste 0 -- -- 94
2020-10-31 08:00:00 11.2 5 Noroeste 11 Noroeste 0 -- -- 100
2020-10-31 07:00:00 10.9 0 Calma 6 Norte 0 -- -- 99
2020-10-31 06:00:00 11.4 3 Noroeste 8 Noroeste 0 -- -- 98
2020-10-31 05:00:00 12.5 4 Norte 9 Noroeste 0 -- -- 94
2020-10-31 04:00:00 13 0 Calma 8 Norte 0 -- -- 91
2020-10-31 03:00:00 13.4 4 Noroeste 16 Oeste 0 -- -- 89
2020-10-31 02:00:00 13.8 5 Norte 9 Oeste 0 -- -- 87
2020-10-31 01:00:00 13.3 8 Oeste 10 Oeste 0 -- -- 87
2020-10-31 00:00:00 13 0 Calma 4 Noroeste 0 -- -- 89
2020-10-30 23:00:00 14.5 4 Noroeste 5 Noroeste 0 -- -- 82
2020-10-30 22:00:00 15.1 0 Calma 6 Oeste 0 -- -- 82
2020-10-30 21:00:00 15.9 5 Noroeste 9 Noroeste 0 -- -- 78
2020-10-30 20:00:00 15.8 0 Calma -- -- 0 -- -- 79
2020-10-30 19:00:00 18.3 0 Calma 6 Sur 0 -- -- 73
2020-10-30 18:00:00 22.8 4 Sudeste 10 Sudeste 0 -- -- 53
2020-10-30 17:00:00 24.2 6 Sudeste 14 Sudeste 0 -- -- 46
2020-10-30 16:00:00 24.4 6 Nordeste 13 Sur 0 -- -- 45
2020-10-30 15:00:00 24.4 3 Sudeste 13 Este 0 -- -- 46
2020-10-30 14:00:00 23.7 8 Este 18 Sudeste 0 -- -- 49
2020-10-30 13:00:00 22.8 11 Este 17 Este 0 -- -- 54
2020-10-30 12:00:00 21.3 11 Sudeste 18 Sudeste 0 -- -- 57
2020-10-30 11:00:00 19.6 14 Sudeste 20 Sudeste 0 -- -- 65
2020-10-30 10:00:00 17.4 7 Sudeste 12 Sudeste 0 -- -- 77
2020-10-30 09:00:00 12.9 3 Noroeste 6 Oeste 0 -- -- 96
2020-10-30 08:00:00 10.7 2 Noroeste 5 Noroeste 0 -- -- 98
2020-10-30 07:00:00 11.2 4 Norte 6 Norte 0 -- -- 98
2020-10-30 06:00:00 11.7 3 Norte 4 Norte 0 -- -- 98
2020-10-30 05:00:00 12 0 Calma 6 Sudeste 0 -- -- 97
2020-10-30 04:00:00 12.5 5 Sudeste 9 Sudeste 0 -- -- 95
2020-10-30 03:00:00 13.2 6 Sudeste 12 Sudeste 0 -- -- 91
2020-10-30 02:00:00 13.3 7 Sudeste 11 Sudeste 0 -- -- 90
2020-10-30 01:00:00 13.6 7 Sudeste 12 Sudeste 0 -- -- 89
2020-10-30 00:00:00 13.2 3 Sudeste 6 Sur 0 -- -- 94
2020-10-29 23:00:00 13.2 3 Sur 5 Sur 0 -- -- 95
2020-10-29 22:00:00 13.6 0 Calma 4 Sur 0 -- -- 93
2020-10-29 21:00:00 14.2 0 Calma 4 Sur 0 -- -- 93
2020-10-29 20:00:00 15.4 3 Sur 6 Sur 0 -- -- 88
2020-10-29 19:00:00 17.7 3 Sudeste 10 Sudeste 0 -- -- 81
2020-10-29 18:00:00 20.7 9 Sudeste 13 Sudeste 0 -- -- 66
2020-10-29 17:00:00 21.9 8 Sudeste 17 Sur 0 -- -- 60
2020-10-29 16:00:00 22.2 8 Sur 20 Sur 0 -- -- 61
2020-10-29 15:00:00 21.7 12 Sudeste 24 Este 0 -- -- 63
2020-10-29 14:00:00 20.8 15 Sudeste 29 Sudeste 0 -- -- 65
2020-10-29 13:00:00 19.9 17 Sudeste 28 Sudeste 0 -- -- 67
2020-10-29 12:00:00 19.2 17 Sudeste 27 Sudeste 0 -- -- 71
2020-10-29 11:00:00 18.1 17 Sudeste 25 Sudeste 0 -- -- 76
2020-10-29 10:00:00 17.1 13 Sudeste 17 Sudeste 0 -- -- 85
2020-10-29 09:00:00 15.2 5 Sur 8 Sur 0 -- -- 95
2020-10-29 08:00:00 13 5 Oeste 6 Oeste 0 -- -- 100
2020-10-29 07:00:00 13.7 3 Noroeste 5 Oeste 0 -- -- 100
2020-10-29 06:00:00 13.6 2 Norte 4 Nordeste 0 -- -- 100
2020-10-29 05:00:00 13 0 Calma 3 Sur 0 -- -- 100
2020-10-29 04:00:00 13.2 0 Calma 3 Oeste 0 -- -- 100
2020-10-29 03:00:00 13.4 4 Oeste 9 Noroeste 0 -- -- 100
2020-10-29 02:00:00 13.7 0 Calma 6 Sudoeste 0 -- -- 100
2020-10-29 01:00:00 13.7 2 Sur 3 Sudeste 0 -- -- 100
2020-10-29 00:00:00 13.4 0 Calma 4 Sudoeste 0 -- -- 100
2020-10-28 23:00:00 13 2 Este 5 Este 0 -- -- 100
2020-10-28 22:00:00 12 2 Sudeste 5 Sudeste 0 -- -- 99
2020-10-28 21:00:00 13.4 5 Sudeste 6 Sudeste 0 -- -- 98
2020-10-28 20:00:00 14.6 0 Calma 7 Sudoeste 0 -- -- 96
2020-10-28 19:00:00 15.6 0 Calma 11 Sudoeste 0 -- -- 92
2020-10-28 18:00:00 16.5 5 Sudoeste 10 Sudoeste 0 -- -- 87
2020-10-28 17:00:00 17.2 8 Sudoeste 13 Sudoeste 0 -- -- 83
2020-10-28 16:00:00 17.2 5 Sudoeste 13 Sudoeste 0 -- -- 83
2020-10-28 15:00:00 16.7 7 Sudoeste 13 Sur 0 -- -- 84
2020-10-28 14:00:00 16.3 5 Sur 14 Sudoeste 0 -- -- 85
2020-10-28 13:00:00 15.7 8 Sudoeste 14 Sudoeste 0 -- -- 87
2020-10-28 12:00:00 14.8 8 Sudoeste 15 Sur 0 -- -- 90
2020-10-28 11:00:00 13.3 9 Sudoeste 12 Sudoeste 0.2 -- -- 98
2020-10-28 10:00:00 12.6 0 Calma 10 Sudeste 0 -- -- 97
2020-10-28 09:00:00 12.1 6 Sudeste 10 Sudoeste 0 -- -- 95
2020-10-28 08:00:00 11.6 5 Sur 7 Sur 0 -- -- 96
2020-10-28 07:00:00 11.7 3 Sudeste 6 Sudeste 0 -- -- 96
2020-10-28 06:00:00 12.3 6 Sur 9 Sudoeste 0 -- -- 93
2020-10-28 05:00:00 12.6 0 Calma 10 Oeste 0 -- -- 91
2020-10-28 04:00:00 12.7 8 Oeste 12 Oeste 0 -- -- 90
2020-10-28 03:00:00 12.8 4 Oeste 12 Oeste 0 -- -- 88
2020-10-28 02:00:00 12.9 5 Noroeste 9 Noroeste 0 -- -- 87
2020-10-28 01:00:00 13 5 Oeste 12 Oeste 0 -- -- 86
2020-10-28 00:00:00 12.9 6 Noroeste 10 Noroeste 0 -- -- 86
2020-10-27 23:00:00 13.1 3 Noroeste 10 Noroeste 0 -- -- 84
2020-10-27 22:00:00 13.5 4 Noroeste 12 Oeste 0 -- -- 83
2020-10-27 21:00:00 13.5 5 Oeste 9 Oeste 0 -- -- 81
2020-10-27 20:00:00 13.5 4 Oeste 10 Sudoeste 0 -- -- 82
2020-10-27 19:00:00 13.6 4 Sudoeste 13 Oeste 0 -- -- 79
2020-10-27 18:00:00 14.4 7 Oeste 18 Noroeste 0 -- -- 75
2020-10-27 17:00:00 14.9 13 Noroeste 24 Noroeste 0 -- -- 71
2020-10-27 16:00:00 15.3 14 Oeste 22 Oeste 0 -- -- 69
2020-10-27 15:00:00 15.2 13 Noroeste 19 Oeste 0 -- -- 69
2020-10-27 14:00:00 14.5 12 Noroeste 25 Oeste 0 -- -- 71
2020-10-27 13:00:00 15.1 12 Oeste 20 Sudoeste 0 -- -- 70
2020-10-27 12:00:00 14 11 Oeste 19 Oeste 0 -- -- 75
2020-10-27 11:00:00 12.8 8 Sudoeste 13 Sudoeste 0 -- -- 75
2020-10-27 10:00:00 11.5 5 Sudoeste 9 Sudoeste 0 -- -- 80
2020-10-27 09:00:00 8 2 Sur 5 Sudeste 0 -- -- 98
2020-10-27 08:00:00 6.7 0 Calma 5 Noroeste 0 -- -- 98
2020-10-27 07:00:00 6.3 3 Noroeste 6 Oeste 0 -- -- 97
2020-10-27 06:00:00 5.4 2 Oeste 5 Oeste 0 -- -- 99
2020-10-27 05:00:00 5.4 0 Calma 8 Oeste 0 -- -- 97
2020-10-27 04:00:00 6.4 4 Oeste 7 Oeste 0 -- -- 94
2020-10-27 03:00:00 7.1 2 Noroeste 6 Oeste 0 -- -- 90
2020-10-27 02:00:00 7.4 2 Noroeste 6 Noroeste 0 -- -- 90
2020-10-27 01:00:00 8 3 Oeste 9 Oeste 0 -- -- 87
2020-10-27 00:00:00 8.1 5 Oeste 14 Noroeste 0 -- -- 89
2020-10-26 23:00:00 8.8 10 Noroeste 15 Noroeste 0 -- -- 85
2020-10-26 22:00:00 8.3 4 Noroeste 15 Noroeste 0 -- -- 87
2020-10-26 21:00:00 9.1 8 Noroeste 10 Noroeste 0 -- -- 83
2020-10-26 20:00:00 10.4 4 Oeste 10 Norte 0 -- -- 77
2020-10-26 19:00:00 12.3 7 Oeste 13 Noroeste 0 -- -- 68
2020-10-26 18:00:00 14.2 9 Norte 21 Norte 0 -- -- 57
2020-10-26 17:00:00 15.7 8 Norte 26 Norte 0 -- -- 55
2020-10-26 16:00:00 15.7 13 Norte 29 Norte 0 -- -- 53
2020-10-26 15:00:00 15.2 17 Noroeste 31 Noroeste 0 -- -- 58
2020-10-26 14:00:00 14.8 17 Norte 28 Noroeste 0 -- -- 55
2020-10-26 13:00:00 14.1 19 Norte 28 Noroeste 0 -- -- 58
2020-10-26 12:00:00 13.3 14 Norte 27 Norte 0 -- -- 63
2020-10-26 11:00:00 11.7 10 Norte 20 Noroeste 0 -- -- 79
2020-10-26 10:00:00 10.6 11 Noroeste 22 Noroeste 0 -- -- 86
2020-10-26 09:00:00 8.9 16 Noroeste 22 Noroeste 0 -- -- 89
2020-10-26 08:00:00 7.3 11 Noroeste 18 Noroeste 0 -- -- 95
2020-10-26 07:00:00 7.1 9 Noroeste 15 Noroeste 0 -- -- 96
2020-10-26 06:00:00 7.5 8 Noroeste 14 Noroeste 0 -- -- 97
2020-10-26 05:00:00 8.2 8 Noroeste 14 Noroeste 0 -- -- 95
2020-10-26 04:00:00 8.7 5 Noroeste 13 Noroeste 0 -- -- 97
2020-10-26 03:00:00 8.6 8 Noroeste 13 Noroeste 0 -- -- 100
2020-10-26 02:00:00 9.1 7 Noroeste 18 Noroeste 0 -- -- 98
2020-10-26 01:00:00 9.9 14 Noroeste 22 Noroeste 0 -- -- 98
2020-10-26 00:00:00 10.6 8 Noroeste 16 Noroeste 0 -- -- 97